Time;durP1;ratioP1;P1;durP2;ratioP2;P2;SDS_P1;SDS_P2;PMS_P1;PMS_P2;Temp;Humidity;BMP_temperature;BMP_pressure;BME280_temperature;BME280_humidity;BME280_pressure;Samples;Min_cycle;Max_cycle;Signal;HPM_P1;HPM_P2
2022/03/06 00:00:09;;;;;;;15.77;9.27;;;1.40;99.90;;;;;;5014412;28;20245;-64
2022/03/06 00:02:35;;;;;;;18.23;10.07;;;1.30;99.90;;;;;;5014074;28;20174;-65
2022/03/06 00:05:01;;;;;;;17.40;8.73;;;1.40;99.90;;;;;;5013830;28;20173;-65
2022/03/06 00:07:27;;;;;;;12.87;8.07;;;1.40;99.90;;;;;;5014042;28;20528;-64
2022/03/06 00:09:52;;;;;;;12.87;7.83;;;1.40;99.90;;;;;;5013907;28;20166;-65
2022/03/06 00:12:18;;;;;;;16.03;8.37;;;1.20;99.90;;;;;;5013531;28;20244;-64
2022/03/06 00:14:43;;;;;;;14.90;8.10;;;1.20;99.90;;;;;;5013105;28;20207;-64
2022/03/06 00:17:09;;;;;;;12.80;6.87;;;1.20;99.90;;;;;;5013445;28;20185;-64
2022/03/06 00:19:35;;;;;;;12.77;7.53;;;1.20;99.90;;;;;;5013465;28;20157;-64
2022/03/06 00:22:01;;;;;;;15.47;8.10;;;1.30;99.90;;;;;;5013926;28;20602;-65
2022/03/06 00:24:27;;;;;;;13.90;8.27;;;1.40;99.90;;;;;;4996197;28;20235;-65
2022/03/06 00:26:52;;;;;;;12.80;7.87;;;1.50;99.90;;;;;;5013992;28;20237;-65
2022/03/06 00:29:18;;;;;;;13.00;8.27;;;1.40;99.90;;;;;;5015513;28;20582;-63
2022/03/06 00:31:43;;;;;;;15.40;9.03;;;1.30;99.90;;;;;;5018278;28;20173;-65
2022/03/06 00:34:09;;;;;;;15.97;8.93;;;1.50;99.90;;;;;;5017289;28;20205;-64
2022/03/06 00:36:36;;;;;;;16.50;9.47;;;1.50;99.90;;;;;;5018021;28;20196;-65
2022/03/06 00:39:03;;;;;;;15.47;9.53;;;1.50;99.90;;;;;;5017882;28;20158;-64
2022/03/06 00:41:29;;;;;;;15.83;9.53;;;1.40;99.90;;;;;;5017389;28;20166;-64
2022/03/06 00:43:54;;;;;;;19.37;9.67;;;1.20;99.90;;;;;;5017815;28;20170;-64
2022/03/06 00:46:20;;;;;;;15.17;10.00;;;1.20;99.90;;;;;;5017308;28;20249;-65
2022/03/06 00:48:45;;;;;;;17.60;9.67;;;1.10;99.90;;;;;;4999314;28;20203;-63
2022/03/06 00:51:15;;;;;;;15.30;8.47;;;1.40;99.90;;;;;;5000129;28;20592;-65
2022/03/06 00:53:42;;;;;;;13.93;8.50;;;1.30;99.90;;;;;;5016763;28;20170;-64
2022/03/06 00:56:08;;;;;;;14.43;8.30;;;1.30;99.90;;;;;;5017132;28;20204;-64
2022/03/06 00:58:34;;;;;;;15.30;8.43;;;1.30;99.90;;;;;;5017553;28;20212;-64
2022/03/06 01:00:59;;;;;;;13.77;8.43;;;1.30;99.90;;;;;;5017129;28;20181;-65
2022/03/06 01:03:25;;;;;;;14.27;9.30;;;1.20;99.90;;;;;;4999854;28;20181;-64
2022/03/06 01:05:51;;;;;;;14.10;8.93;;;1.30;99.90;;;;;;5017334;28;20173;-65
2022/03/06 01:08:16;;;;;;;16.07;8.93;;;1.30;99.90;;;;;;5000260;28;20618;-63
2022/03/06 01:10:45;;;;;;;15.03;8.93;;;1.10;99.90;;;;;;4999295;28;20259;-64
2022/03/06 01:13:12;;;;;;;22.13;9.70;;;1.10;99.90;;;;;;5017203;28;20594;-64
2022/03/06 01:15:38;;;;;;;15.07;8.80;;;1.10;99.90;;;;;;4999286;28;20232;-65
2022/03/06 01:18:08;;;;;;;14.57;8.97;;;1.10;99.90;;;;;;5017086;28;20578;-65
2022/03/06 01:20:37;;;;;;;15.43;8.73;;;1.10;99.90;;;;;;5017057;28;20304;-64
2022/03/06 01:23:04;;;;;;;17.33;9.80;;;1.20;99.90;;;;;;5016539;28;20175;-63
2022/03/06 01:25:30;;;;;;;16.23;9.47;;;1.20;99.90;;;;;;4999120;28;20276;-65
2022/03/06 01:27:55;;;;;;;15.60;10.27;;;1.10;99.90;;;;;;5016899;28;20585;-63
2022/03/06 01:30:22;;;;;;;14.80;8.83;;;1.10;99.90;;;;;;5016444;28;20161;-65
2022/03/06 01:32:49;;;;;;;15.13;9.93;;;1.10;99.90;;;;;;5016885;28;20583;-63
2022/03/06 01:35:15;;;;;;;17.43;9.13;;;1.00;99.90;;;;;;5016868;28;20205;-64
2022/03/06 01:37:41;;;;;;;16.00;8.20;;;1.00;99.90;;;;;;5016799;28;20227;-64
2022/03/06 01:40:08;;;;;;;14.00;7.87;;;1.00;99.90;;;;;;5016091;28;20293;-64
2022/03/06 01:42:38;;;;;;;15.27;9.00;;;1.10;99.90;;;;;;5016036;28;20261;-64
2022/03/06 01:45:06;;;;;;;15.60;8.10;;;1.00;99.90;;;;;;5016541;28;20192;-64
2022/03/06 01:47:43;;;;;;;15.77;8.70;;;1.10;99.90;;;;;;5016399;28;20190;-65
2022/03/06 01:50:24;;;;;;;13.57;7.50;;;1.10;99.90;;;;;;5016789;28;20660;-65
2022/03/06 01:52:52;;;;;;;13.70;7.90;;;1.10;99.90;;;;;;5016667;28;20187;-64
2022/03/06 01:55:19;;;;;;;11.60;7.20;;;1.00;99.90;;;;;;5016684;28;20205;-63
2022/03/06 01:57:46;;;;;;;13.20;7.97;;;1.00;99.90;;;;;;5016325;28;20556;-64
2022/03/06 02:00:18;;;;;;;12.30;7.73;;;1.10;99.90;;;;;;5015904;28;20193;-64
2022/03/06 02:02:44;;;;;;;16.10;8.37;;;1.10;99.90;;;;;;5016419;28;20165;-63
2022/03/06 02:05:10;;;;;;;13.77;7.37;;;1.00;99.90;;;;;;5016204;28;20170;-64
2022/03/06 02:07:36;;;;;;;17.30;8.77;;;1.00;99.90;;;;;;5016957;28;20232;-64
2022/03/06 02:10:04;;;;;;;12.97;8.00;;;1.10;99.90;;;;;;5018276;28;20652;-64
2022/03/06 02:12:31;;;;;;;11.07;7.23;;;1.10;99.90;;;;;;5022070;28;20606;-64
2022/03/06 02:14:59;;;;;;;11.67;7.37;;;1.00;99.90;;;;;;5021260;28;20252;-64
2022/03/06 02:17:26;;;;;;;13.73;8.23;;;1.10;99.90;;;;;;5021569;28;20164;-64
2022/03/06 02:19:53;;;;;;;12.37;7.17;;;1.10;99.90;;;;;;5019430;28;20184;-65
2022/03/06 02:22:20;;;;;;;10.67;6.97;;;1.10;99.90;;;;;;5016751;28;20150;-64
2022/03/06 02:24:45;;;;;;;14.10;7.23;;;1.10;99.90;;;;;;5016368;28;20182;-64
2022/03/06 02:27:12;;;;;;;11.80;6.63;;;1.00;99.90;;;;;;5015536;28;20229;-64
2022/03/06 02:29:42;;;;;;;12.43;6.93;;;1.10;99.90;;;;;;5016053;28;20598;-65
2022/03/06 02:32:13;;;;;;;10.10;6.10;;;1.00;99.90;;;;;;4983704;28;20275;-68
2022/03/06 02:34:40;;;;;;;10.77;6.50;;;1.00;99.90;;;;;;5016714;28;20190;-64
2022/03/06 02:37:06;;;;;;;12.73;6.63;;;1.00;99.90;;;;;;5024520;28;20173;-65
2022/03/06 02:39:31;;;;;;;12.73;6.87;;;1.10;99.90;;;;;;5029410;28;20173;-65
2022/03/06 02:41:58;;;;;;;10.30;6.97;;;1.10;99.90;;;;;;5026030;28;20245;-65
2022/03/06 02:44:24;;;;;;;12.10;6.50;;;1.00;99.90;;;;;;5028205;28;20161;-64
2022/03/06 02:46:51;;;;;;;10.37;6.90;;;1.00;99.90;;;;;;5026044;28;20154;-64
2022/03/06 02:49:20;;;;;;;11.80;7.10;;;0.90;99.90;;;;;;5028028;28;20170;-64
2022/03/06 02:51:46;;;;;;;10.37;6.93;;;0.90;99.90;;;;;;5015500;28;20158;-63
2022/03/06 02:54:13;;;;;;;11.20;6.80;;;0.90;99.90;;;;;;5015400;28;20197;-63
2022/03/06 02:56:38;;;;;;;14.50;7.33;;;1.00;99.90;;;;;;5015497;28;20296;-64
2022/03/06 02:59:04;;;;;;;16.07;7.07;;;1.10;99.90;;;;;;5014849;28;20238;-63
2022/03/06 03:01:31;;;;;;;11.97;6.80;;;1.00;99.90;;;;;;5015141;28;20555;-64
2022/03/06 03:03:57;;;;;;;10.70;6.83;;;0.90;99.90;;;;;;4998374;28;20177;-64
2022/03/06 03:06:22;;;;;;;13.13;6.83;;;1.00;99.90;;;;;;5014845;28;20172;-64
2022/03/06 03:08:48;;;;;;;10.03;6.03;;;0.90;99.90;;;;;;5014713;28;20162;-63
2022/03/06 03:11:14;;;;;;;11.60;7.07;;;0.90;99.90;;;;;;4997476;28;20489;-64
2022/03/06 03:13:40;;;;;;;11.00;7.17;;;0.90;99.90;;;;;;5014871;28;20162;-64
2022/03/06 03:16:07;;;;;;;13.57;7.60;;;0.80;99.90;;;;;;5014757;28;20162;-63
2022/03/06 03:18:32;;;;;;;12.70;6.67;;;0.80;99.90;;;;;;5015158;28;20470;-64
2022/03/06 03:20:59;;;;;;;8.93;6.30;;;0.80;99.90;;;;;;5014948;28;20170;-64
2022/03/06 03:23:24;;;;;;;11.37;6.87;;;0.80;99.90;;;;;;5014692;28;20656;-63
2022/03/06 03:25:50;;;;;;;9.33;6.63;;;0.90;99.90;;;;;;5014642;28;20166;-63
2022/03/06 03:28:16;;;;;;;11.13;6.67;;;0.70;99.90;;;;;;5014873;28;20243;-64
2022/03/06 03:30:42;;;;;;;11.53;7.03;;;0.70;99.90;;;;;;5014655;28;20166;-65
2022/03/06 03:33:08;;;;;;;11.57;7.57;;;0.70;99.90;;;;;;5014675;28;20588;-66
2022/03/06 03:35:33;;;;;;;14.60;8.17;;;0.70;99.90;;;;;;5014553;28;20540;-65
2022/03/06 03:37:59;;;;;;;13.47;6.83;;;0.90;99.90;;;;;;5014513;28;20176;-64
2022/03/06 03:40:24;;;;;;;9.47;6.70;;;0.90;99.90;;;;;;5014955;28;20212;-63
2022/03/06 03:42:50;;;;;;;14.37;7.07;;;0.90;99.90;;;;;;5014135;28;20250;-64
2022/03/06 03:45:16;;;;;;;10.77;7.23;;;0.80;99.90;;;;;;5014640;28;20550;-65
2022/03/06 03:47:41;;;;;;;13.37;7.73;;;0.80;99.90;;;;;;5014228;28;20216;-64
2022/03/06 03:50:08;;;;;;;16.40;7.87;;;0.90;99.90;;;;;;5014176;28;20166;-64
2022/03/06 03:52:34;;;;;;;11.77;7.60;;;0.80;99.90;;;;;;5014116;28;20170;-63
2022/03/06 03:54:59;;;;;;;14.00;7.47;;;1.10;99.90;;;;;;5014699;28;20205;-63
2022/03/06 03:57:25;;;;;;;11.03;6.67;;;1.00;99.90;;;;;;5014968;28;20161;-64
2022/03/06 03:59:51;;;;;;;9.07;6.20;;;1.00;99.90;;;;;;5014604;28;20177;-65
2022/03/06 04:02:17;;;;;;;11.47;6.80;;;1.00;99.90;;;;;;5014169;28;20610;-64
2022/03/06 04:04:42;;;;;;;11.73;6.70;;;1.00;99.90;;;;;;5014002;28;20196;-65
2022/03/06 04:07:08;;;;;;;10.17;6.43;;;0.90;99.90;;;;;;5014325;28;20165;-64
2022/03/06 04:09:34;;;;;;;12.40;7.13;;;1.00;99.90;;;;;;5014038;28;20208;-65
2022/03/06 04:11:59;;;;;;;12.57;6.70;;;1.00;99.90;;;;;;5014097;28;20174;-64
2022/03/06 04:14:25;;;;;;;9.90;6.30;;;1.10;99.90;;;;;;5013143;28;20204;-64
2022/03/06 04:16:51;;;;;;;11.33;6.33;;;1.10;99.90;;;;;;5013194;28;20512;-64
2022/03/06 04:19:16;;;;;;;13.93;6.17;;;1.10;99.90;;;;;;5013204;28;20235;-64
2022/03/06 04:21:42;;;;;;;15.60;6.40;;;1.10;99.90;;;;;;5013616;28;20172;-64
2022/03/06 04:24:08;;;;;;;13.93;7.13;;;1.20;99.90;;;;;;5013372;28;20188;-64
2022/03/06 04:26:34;;;;;;;12.97;6.50;;;1.10;99.90;;;;;;5013324;28;20229;-63
2022/03/06 04:29:01;;;;;;;9.77;6.03;;;1.10;99.90;;;;;;5013373;28;20230;-67
2022/03/06 04:31:27;;;;;;;11.43;6.33;;;1.20;99.90;;;;;;5013415;28;20162;-64
2022/03/06 04:33:53;;;;;;;13.20;6.47;;;1.30;99.90;;;;;;4996019;28;20173;-64
2022/03/06 04:36:19;;;;;;;11.40;6.20;;;1.10;99.90;;;;;;4996200;28;20227;-63
2022/03/06 04:38:44;;;;;;;10.63;5.87;;;1.20;99.90;;;;;;5013286;28;20162;-63
2022/03/06 04:41:10;;;;;;;13.33;7.23;;;1.30;99.90;;;;;;5013209;28;20170;-63
2022/03/06 04:43:36;;;;;;;9.67;6.20;;;1.30;99.90;;;;;;5014287;28;20166;-64
2022/03/06 04:46:02;;;;;;;9.93;6.00;;;1.30;99.90;;;;;;5013903;28;20177;-65
2022/03/06 04:48:28;;;;;;;12.77;6.43;;;1.30;99.90;;;;;;5013742;28;20165;-64
2022/03/06 04:50:53;;;;;;;10.90;6.07;;;1.30;99.90;;;;;;4996301;28;20239;-64
2022/03/06 04:53:19;;;;;;;10.53;6.40;;;1.40;99.90;;;;;;5013337;28;20549;-65
2022/03/06 04:55:45;;;;;;;10.77;5.80;;;1.50;99.90;;;;;;5013591;28;20258;-64
2022/03/06 04:58:10;;;;;;;9.57;6.23;;;1.80;99.90;;;;;;5013619;28;20162;-64
2022/03/06 05:00:36;;;;;;;12.00;6.47;;;1.70;99.90;;;;;;5013557;28;20176;-65
2022/03/06 05:03:02;;;;;;;12.70;7.13;;;1.70;99.90;;;;;;5013205;28;20594;-63
2022/03/06 05:05:27;;;;;;;8.57;5.87;;;1.60;99.90;;;;;;5013604;28;20162;-63
2022/03/06 05:07:53;;;;;;;9.83;6.37;;;1.50;99.90;;;;;;5013589;28;20166;-64
2022/03/06 05:10:19;;;;;;;9.07;6.60;;;1.40;99.90;;;;;;5013343;28;20197;-64
2022/03/06 05:12:44;;;;;;;11.77;6.43;;;1.50;99.90;;;;;;5014102;28;20689;-63
2022/03/06 05:15:12;;;;;;;10.97;6.47;;;1.60;99.90;;;;;;5015716;28;20204;-65
2022/03/06 05:17:39;;;;;;;10.53;5.73;;;1.50;99.90;;;;;;5017633;28;20162;-64
2022/03/06 05:20:07;;;;;;;11.13;6.40;;;1.40;99.90;;;;;;5017283;28;20209;-65
2022/03/06 05:22:32;;;;;;;10.50;5.73;;;1.30;99.90;;;;;;5017889;28;20154;-64
2022/03/06 05:24:58;;;;;;;10.20;6.17;;;1.40;99.90;;;;;;5020038;28;20192;-64
2022/03/06 05:27:26;;;;;;;11.63;6.10;;;1.50;99.90;;;;;;5017923;28;20532;-64
2022/03/06 05:29:51;;;;;;;9.57;5.90;;;1.40;99.90;;;;;;5017467;28;20176;-64
2022/03/06 05:32:17;;;;;;;15.03;7.13;;;1.40;99.90;;;;;;4999381;28;20518;-64
2022/03/06 05:34:43;;;;;;;13.33;6.43;;;1.30;99.90;;;;;;5016928;28;20520;-64
2022/03/06 05:37:08;;;;;;;9.23;5.90;;;1.30;99.90;;;;;;5017973;28;20177;-62
2022/03/06 05:39:34;;;;;;;11.83;6.00;;;1.30;99.90;;;;;;4999471;28;20640;-64
2022/03/06 05:41:59;;;;;;;9.63;6.13;;;1.30;99.90;;;;;;5017161;28;20197;-64
2022/03/06 05:44:26;;;;;;;10.30;6.00;;;1.30;99.90;;;;;;5016215;28;20209;-64
2022/03/06 05:46:51;;;;;;;12.57;6.53;;;1.40;99.90;;;;;;5016831;28;20284;-65
2022/03/06 05:49:17;;;;;;;10.70;5.63;;;1.10;99.90;;;;;;5016906;28;20592;-63
2022/03/06 05:51:44;;;;;;;11.97;5.83;;;1.10;99.90;;;;;;5016671;28;20185;-65
2022/03/06 05:54:11;;;;;;;12.07;6.07;;;1.20;99.90;;;;;;5016424;28;20567;-64
2022/03/06 05:56:39;;;;;;;9.00;6.37;;;1.20;99.90;;;;;;5016190;28;20173;-64
2022/03/06 05:59:05;;;;;;;10.57;5.80;;;1.20;99.90;;;;;;5015810;28;20161;-63
2022/03/06 06:01:31;;;;;;;9.23;5.70;;;1.10;99.90;;;;;;5016125;28;20170;-67
2022/03/06 06:03:57;;;;;;;9.63;5.53;;;1.10;99.90;;;;;;5015778;28;20168;-65
2022/03/06 06:06:24;;;;;;;10.43;5.63;;;1.20;99.90;;;;;;5015961;28;20246;-63
2022/03/06 06:08:50;;;;;;;9.30;6.57;;;1.30;99.90;;;;;;5016388;28;20180;-64
2022/03/06 06:11:16;;;;;;;10.90;5.97;;;1.20;99.90;;;;;;5016189;28;20162;-64
2022/03/06 06:13:41;;;;;;;14.37;6.63;;;1.40;99.90;;;;;;5016667;28;20170;-65
2022/03/06 06:16:07;;;;;;;11.23;6.23;;;1.50;99.90;;;;;;5015858;28;20178;-63
2022/03/06 06:18:32;;;;;;;11.37;5.90;;;1.50;99.90;;;;;;5016145;28;20164;-65
2022/03/06 06:20:58;;;;;;;9.30;5.77;;;1.50;99.90;;;;;;5015620;28;20196;-65
2022/03/06 06:23:24;;;;;;;10.20;5.67;;;1.50;99.90;;;;;;4998731;28;20174;-64
2022/03/06 06:25:49;;;;;;;10.10;6.00;;;1.60;99.90;;;;;;5015497;28;20609;-64
2022/03/06 06:28:15;;;;;;;10.33;5.63;;;1.40;99.90;;;;;;5015862;28;20246;-63
2022/03/06 06:30:41;;;;;;;13.30;7.17;;;1.60;99.90;;;;;;4998963;28;20184;-64
2022/03/06 06:33:06;;;;;;;11.43;6.97;;;1.70;99.90;;;;;;5016638;28;20162;-65
2022/03/06 06:35:34;;;;;;;10.97;6.03;;;1.70;99.90;;;;;;5015643;28;20233;-65
2022/03/06 06:38:03;;;;;;;11.70;6.87;;;1.50;99.90;;;;;;5017803;28;20170;-65
2022/03/06 06:40:29;;;;;;;11.37;6.40;;;1.50;99.90;;;;;;5018214;28;20166;-65
2022/03/06 06:42:55;;;;;;;9.07;6.63;;;1.50;99.90;;;;;;5019351;28;20173;-65
2022/03/06 06:45:21;;;;;;;10.60;6.70;;;1.50;99.90;;;;;;5019570;28;20174;-66
2022/03/06 06:47:47;;;;;;;15.10;7.73;;;1.50;99.90;;;;;;5016864;28;20261;-65
2022/03/06 06:50:12;;;;;;;12.83;7.30;;;1.50;99.90;;;;;;5020560;28;20170;-65
2022/03/06 06:52:38;;;;;;;12.63;6.07;;;1.60;99.90;;;;;;5000688;28;20158;-64
2022/03/06 06:55:05;;;;;;;11.40;6.30;;;1.60;99.90;;;;;;5015622;28;20198;-64
2022/03/06 06:57:32;;;;;;;9.23;5.60;;;1.60;99.90;;;;;;4998541;28;20256;-64
2022/03/06 06:59:59;;;;;;;10.27;6.00;;;1.50;99.90;;;;;;5016279;28;20161;-64
2022/03/06 07:02:24;;;;;;;9.37;5.70;;;1.60;99.90;;;;;;5016151;28;20249;-65
2022/03/06 07:04:50;;;;;;;11.23;5.80;;;1.50;99.90;;;;;;5016033;28;20197;-64
2022/03/06 07:07:16;;;;;;;14.10;6.10;;;1.60;99.90;;;;;;5015719;28;20166;-64
2022/03/06 07:09:41;;;;;;;10.17;6.10;;;1.60;99.90;;;;;;5016123;28;20679;-65
2022/03/06 07:12:08;;;;;;;11.87;6.10;;;1.60;99.90;;;;;;4998899;28;20174;-65
2022/03/06 07:14:33;;;;;;;13.73;6.77;;;1.60;99.90;;;;;;5015965;28;20219;-64
2022/03/06 07:16:59;;;;;;;10.43;5.80;;;1.60;99.90;;;;;;5016160;28;20165;-64
2022/03/06 07:19:25;;;;;;;10.07;6.07;;;1.70;99.90;;;;;;5015380;28;20165;-63
2022/03/06 07:21:51;;;;;;;10.30;5.93;;;1.70;99.90;;;;;;5015432;28;20302;-64
2022/03/06 07:24:17;;;;;;;7.60;5.67;;;1.70;99.90;;;;;;5015433;28;20189;-63
2022/03/06 07:26:43;;;;;;;12.17;6.00;;;1.60;99.90;;;;;;5015092;28;20607;-64
2022/03/06 07:29:08;;;;;;;7.57;5.67;;;1.60;99.90;;;;;;5014421;28;20162;-64
2022/03/06 07:31:34;;;;;;;11.17;6.10;;;1.70;99.90;;;;;;5014915;28;20173;-63
2022/03/06 07:34:00;;;;;;;12.37;5.57;;;1.60;99.90;;;;;;5014142;28;20257;-65
2022/03/06 07:36:26;;;;;;;8.93;5.70;;;1.80;99.90;;;;;;5014742;28;20703;-65
2022/03/06 07:38:52;;;;;;;9.67;5.70;;;2.00;99.90;;;;;;5014487;28;20188;-66
2022/03/06 07:41:18;;;;;;;9.83;5.47;;;2.00;99.90;;;;;;4996984;28;20545;-65
2022/03/06 07:43:44;;;;;;;9.00;5.20;;;2.10;99.90;;;;;;4997143;28;20185;-64
2022/03/06 07:46:10;;;;;;;8.10;5.53;;;1.90;99.90;;;;;;5014534;28;20245;-64
2022/03/06 07:48:35;;;;;;;11.17;5.57;;;1.90;99.90;;;;;;5014600;28;20208;-64
2022/03/06 07:51:01;;;;;;;9.97;5.60;;;2.00;99.90;;;;;;5014773;28;20598;-63
2022/03/06 07:53:27;;;;;;;7.47;5.47;;;1.90;99.90;;;;;;4996656;28;20230;-65
2022/03/06 07:55:53;;;;;;;11.37;5.30;;;2.00;99.90;;;;;;5014475;28;20205;-64
2022/03/06 07:58:19;;;;;;;8.27;5.57;;;2.10;99.90;;;;;;5013871;28;20253;-64
2022/03/06 08:00:44;;;;;;;6.87;4.50;;;2.20;99.90;;;;;;5013705;28;20180;-65
2022/03/06 08:03:10;;;;;;;10.57;5.57;;;2.20;99.90;;;;;;5013917;28;20609;-64
2022/03/06 08:05:36;;;;;;;7.97;4.47;;;2.30;99.90;;;;;;5014518;28;20196;-64
2022/03/06 08:08:02;;;;;;;9.50;5.07;;;2.30;99.90;;;;;;5014258;28;20517;-64
2022/03/06 08:10:28;;;;;;;7.07;5.20;;;2.20;99.90;;;;;;5013812;28;20629;-64
2022/03/06 08:12:54;;;;;;;6.27;3.87;;;2.10;99.90;;;;;;5015045;28;20173;-64
2022/03/06 08:15:19;;;;;;;8.97;5.53;;;2.30;99.90;;;;;;4998079;28;20227;-64
2022/03/06 08:17:45;;;;;;;9.27;5.20;;;2.20;99.90;;;;;;4996127;28;20303;-65
2022/03/06 08:20:11;;;;;;;9.43;5.57;;;2.30;99.90;;;;;;5013778;28;20219;-65
2022/03/06 08:22:37;;;;;;;8.10;4.33;;;2.40;99.90;;;;;;5013278;28;20629;-65
2022/03/06 08:25:04;;;;;;;7.90;4.80;;;2.40;99.90;;;;;;5014179;28;20174;-65
2022/03/06 08:27:30;;;;;;;5.93;4.53;;;2.30;99.90;;;;;;5013582;28;20236;-64
2022/03/06 08:29:56;;;;;;;5.87;4.27;;;2.40;99.90;;;;;;4996400;28;20220;-65
2022/03/06 08:32:22;;;;;;;7.50;4.17;;;2.50;99.90;;;;;;5013479;28;20205;-65
2022/03/06 08:34:51;;;;;;;7.83;4.43;;;2.30;99.90;;;;;;5013801;28;20197;-64
2022/03/06 08:37:18;;;;;;;9.43;4.13;;;2.40;99.90;;;;;;5013563;28;20169;-64
2022/03/06 08:39:44;;;;;;;7.73;3.83;;;2.60;99.90;;;;;;5013883;28;20602;-63
2022/03/06 08:42:09;;;;;;;6.17;4.43;;;2.70;99.90;;;;;;4995692;28;20645;-63
2022/03/06 08:44:35;;;;;;;6.33;4.40;;;2.60;99.90;;;;;;5013217;28;20169;-64
2022/03/06 08:47:01;;;;;;;6.47;4.23;;;2.60;99.90;;;;;;5013262;28;20558;-63
2022/03/06 08:49:26;;;;;;;11.67;3.90;;;2.80;99.90;;;;;;5013825;28;20166;-65
2022/03/06 08:51:52;;;;;;;6.37;3.93;;;2.80;99.90;;;;;;5017110;28;20197;-64
2022/03/06 08:54:17;;;;;;;9.60;4.63;;;3.00;99.90;;;;;;5017277;28;20204;-65
2022/03/06 08:56:43;;;;;;;5.33;3.87;;;3.00;99.90;;;;;;5017497;28;20165;-65
2022/03/06 08:59:09;;;;;;;6.90;4.23;;;3.00;99.90;;;;;;5017785;28;20250;-63
2022/03/06 09:01:34;;;;;;;4.77;3.70;;;2.90;99.90;;;;;;5017401;28;20162;-64
2022/03/06 09:04:00;;;;;;;6.77;4.37;;;3.00;99.90;;;;;;5017238;28;20196;-64
2022/03/06 09:06:26;;;;;;;7.13;3.97;;;3.30;99.90;;;;;;5017245;28;20189;-63
2022/03/06 09:08:51;;;;;;;5.40;3.70;;;3.30;99.90;;;;;;5017217;28;20169;-65
2022/03/06 09:11:17;;;;;;;3.37;2.67;;;3.20;99.90;;;;;;5017069;28;20158;-63
2022/03/06 09:13:43;;;;;;;6.23;4.10;;;3.20;99.90;;;;;;5016793;28;20598;-64
2022/03/06 09:16:08;;;;;;;6.10;3.90;;;3.10;99.90;;;;;;5017521;28;20308;-65
2022/03/06 09:18:34;;;;;;;5.53;4.03;;;3.00;99.90;;;;;;4999903;28;20175;-63
2022/03/06 09:21:00;;;;;;;7.37;4.10;;;3.20;99.90;;;;;;5013210;28;20198;-64
2022/03/06 09:23:25;;;;;;;5.27;4.07;;;3.20;99.90;;;;;;5017158;28;20296;-64
2022/03/06 09:25:51;;;;;;;6.97;4.23;;;3.40;99.30;;;;;;5017539;28;20263;-65
2022/03/06 09:28:16;;;;;;;8.47;4.57;;;3.40;99.10;;;;;;5017173;28;20209;-63
2022/03/06 09:30:42;;;;;;;5.30;3.50;;;3.60;98.70;;;;;;5017035;28;20284;-64
2022/03/06 09:33:08;;;;;;;8.20;4.13;;;3.50;97.90;;;;;;5016807;28;20163;-64
2022/03/06 09:35:34;;;;;;;5.93;3.60;;;3.40;97.90;;;;;;5016274;28;20606;-64
2022/03/06 09:38:01;;;;;;;7.20;3.93;;;3.30;98.10;;;;;;5016891;28;20180;-64
2022/03/06 09:40:27;;;;;;;6.27;3.87;;;3.40;98.10;;;;;;5017225;28;20154;-63
2022/03/06 09:42:53;;;;;;;9.27;4.27;;;3.40;97.60;;;;;;5018176;28;20541;-63
2022/03/06 09:45:25;;;;;;;5.37;4.00;;;3.40;98.00;;;;;;5016600;28;20208;-63
2022/03/06 09:47:52;;;;;;;4.87;3.33;;;3.50;98.40;;;;;;5016206;28;20189;-65
2022/03/06 09:50:18;;;;;;;5.17;3.63;;;3.60;97.90;;;;;;5015938;28;20257;-64
2022/03/06 09:52:44;;;;;;;6.70;4.17;;;3.70;98.00;;;;;;5016838;28;20175;-63
2022/03/06 09:55:11;;;;;;;8.30;5.03;;;3.80;97.60;;;;;;5016243;28;20246;-64
2022/03/06 09:57:37;;;;;;;5.07;3.30;;;3.90;97.20;;;;;;5016347;28;20171;-65
2022/03/06 10:00:05;;;;;;;4.93;3.20;;;3.80;96.90;;;;;;5016154;28;20196;-65
2022/03/06 10:02:31;;;;;;;5.83;4.47;;;3.90;97.40;;;;;;5015939;28;20180;-62
2022/03/06 10:04:57;;;;;;;6.27;3.53;;;3.70;97.00;;;;;;5016531;28;20169;-64
2022/03/06 10:07:22;;;;;;;9.23;4.23;;;3.40;96.90;;;;;;5016186;28;20605;-63
2022/03/06 10:09:51;;;;;;;7.13;4.50;;;3.50;97.40;;;;;;5016194;28;20232;-64
2022/03/06 10:12:32;;;;;;;6.23;3.23;;;3.50;97.30;;;;;;5016087;28;20170;-63
2022/03/06 10:14:59;;;;;;;8.23;5.53;;;3.20;98.80;;;;;;5015683;28;20631;-63
2022/03/06 10:17:27;;;;;;;7.77;4.70;;;3.30;99.30;;;;;;5015788;28;20183;-64
2022/03/06 10:20:00;;;;;;;8.07;4.00;;;3.50;99.70;;;;;;4998241;28;20185;-63
2022/03/06 10:22:36;;;;;;;7.80;4.20;;;3.50;99.30;;;;;;5015881;28;20173;-64
2022/03/06 10:25:16;;;;;;;6.97;4.87;;;3.60;99.90;;;;;;4997641;28;20201;-65
2022/03/06 10:27:57;;;;;;;7.50;4.83;;;3.50;99.40;;;;;;4996114;28;20580;-64
2022/03/06 10:30:37;;;;;;;7.10;4.63;;;3.40;98.60;;;;;;4979384;28;20264;-64
2022/03/06 10:33:26;;;;;;;7.47;4.80;;;3.60;98.40;;;;;;4995977;28;20202;-64
2022/03/06 10:35:53;;;;;;;6.97;4.27;;;3.70;98.70;;;;;;4994925;28;20573;-64
2022/03/06 10:38:20;;;;;;;8.87;4.70;;;3.70;98.30;;;;;;4996032;28;20151;-64
2022/03/06 10:40:46;;;;;;;9.00;4.60;;;3.40;97.20;;;;;;4995653;28;20167;-64
2022/03/06 10:43:23;;;;;;;8.13;4.80;;;3.60;97.60;;;;;;4995612;28;20202;-63
2022/03/06 10:45:51;;;;;;;6.33;4.53;;;3.80;97.10;;;;;;4995837;28;20203;-64
2022/03/06 10:48:17;;;;;;;8.73;4.80;;;3.70;97.40;;;;;;4995368;28;20587;-64
2022/03/06 10:50:43;;;;;;;8.03;5.37;;;3.70;96.80;;;;;;4995025;28;20155;-63
2022/03/06 10:53:22;;;;;;;9.73;6.07;;;3.60;95.80;;;;;;4995700;28;20164;-64
2022/03/06 10:55:49;;;;;;;11.17;5.80;;;3.50;96.50;;;;;;4995202;28;20198;-64
2022/03/06 10:58:14;;;;;;;9.93;5.47;;;3.60;96.80;;;;;;4995378;28;20192;-63
2022/03/06 11:00:41;;;;;;;12.50;5.80;;;3.60;97.20;;;;;;4995741;28;20210;-65
2022/03/06 11:03:11;;;;;;;6.60;5.00;;;3.60;97.70;;;;;;4995894;28;20622;-65
2022/03/06 11:05:43;;;;;;;7.37;4.70;;;3.50;97.90;;;;;;4996341;28;20170;-64
2022/03/06 11:08:15;;;;;;;13.83;6.73;;;3.50;97.30;;;;;;4997265;28;20178;-65
2022/03/06 11:10:42;;;;;;;10.83;6.40;;;3.60;97.70;;;;;;4995204;28;20166;-65
2022/03/06 11:13:13;;;;;;;10.00;6.37;;;3.60;97.80;;;;;;4994762;28;20185;-64
2022/03/06 11:15:39;;;;;;;9.30;5.90;;;3.40;98.40;;;;;;4977895;28;20292;-63
2022/03/06 11:18:06;;;;;;;7.83;4.70;;;3.40;98.90;;;;;;4995250;28;20178;-63
2022/03/06 11:20:33;;;;;;;11.50;6.70;;;3.30;98.40;;;;;;4994845;28;20170;-64
2022/03/06 11:23:19;;;;;;;9.03;6.60;;;3.40;99.10;;;;;;4994559;28;20594;-65
2022/03/06 11:26:09;;;;;;;11.20;6.70;;;3.30;98.70;;;;;;4995344;28;20601;-64
2022/03/06 11:29:02;;;;;;;10.53;7.53;;;3.40;98.90;;;;;;4994488;28;20252;-63
2022/03/06 11:31:43;;;;;;;18.40;9.77;;;3.50;98.70;;;;;;4994416;28;20170;-63
2022/03/06 11:34:09;;;;;;;13.77;8.10;;;3.40;98.90;;;;;;4993744;28;20215;-63
2022/03/06 11:36:45;;;;;;;12.60;7.03;;;3.50;97.50;;;;;;4993547;28;20174;-63
2022/03/06 11:39:15;;;;;;;7.30;4.93;;;3.30;95.70;;;;;;4993965;28;20163;-62
2022/03/06 11:41:40;;;;;;;10.93;6.60;;;3.20;94.50;;;;;;4993836;28;20166;-65
2022/03/06 11:44:33;;;;;;;12.20;6.77;;;3.20;94.40;;;;;;4994058;28;20167;-64
2022/03/06 11:46:59;;;;;;;9.33;5.80;;;3.20;94.80;;;;;;4993768;28;20603;-63
2022/03/06 11:49:34;;;;;;;12.63;7.13;;;3.10;94.40;;;;;;4993588;28;20164;-64
2022/03/06 11:52:00;;;;;;;10.60;6.77;;;3.20;94.20;;;;;;4993818;28;20166;-63
2022/03/06 11:54:43;;;;;;;11.90;7.50;;;3.20;94.50;;;;;;4993357;28;20205;-63
2022/03/06 11:57:09;;;;;;;10.43;6.57;;;3.20;94.40;;;;;;4993788;28;20226;-64
2022/03/06 11:59:36;;;;;;;7.60;5.90;;;3.20;94.80;;;;;;4976285;28;20167;-64
2022/03/06 12:02:08;;;;;;;15.43;8.57;;;3.20;94.60;;;;;;4993843;28;20598;-63
2022/03/06 12:04:39;;;;;;;11.27;7.10;;;3.10;95.20;;;;;;4993284;28;20480;-65
2022/03/06 12:07:07;;;;;;;8.33;6.20;;;3.00;95.00;;;;;;4993362;28;20159;-64
2022/03/06 12:09:41;;;;;;;13.77;8.37;;;2.80;94.70;;;;;;4992901;28;20652;-64
2022/03/06 12:12:10;;;;;;;11.20;5.20;;;2.90;94.70;;;;;;4993304;28;20154;-63
2022/03/06 12:14:38;;;;;;;10.63;4.90;;;2.90;94.60;;;;;;4993398;28;20210;-64
2022/03/06 12:17:06;;;;;;;10.00;5.60;;;2.90;94.60;;;;;;4993839;28;20214;-63
2022/03/06 12:19:40;;;;;;;6.93;4.93;;;2.90;94.60;;;;;;4995154;28;20213;-64
2022/03/06 12:22:10;;;;;;;12.73;6.27;;;2.80;94.30;;;;;;4994823;28;20158;-63
2022/03/06 12:24:37;;;;;;;11.53;6.40;;;2.70;94.70;;;;;;4995023;28;20181;-64
2022/03/06 12:27:19;;;;;;;9.10;6.27;;;2.80;94.70;;;;;;4957815;28;1131648;-63
2022/03/06 12:29:47;;;;;;;8.97;5.97;;;2.80;94.30;;;;;;4995383;28;20182;-63
2022/03/06 12:32:34;;;;;;;12.27;6.33;;;2.80;93.80;;;;;;4996812;28;20182;-64
2022/03/06 12:35:02;;;;;;;7.87;5.90;;;2.70;94.00;;;;;;4995599;28;20236;-65
2022/03/06 12:37:38;;;;;;;11.50;6.20;;;2.70;93.40;;;;;;5008906;28;20192;-63
2022/03/06 12:40:09;;;;;;;6.57;5.10;;;2.80;93.10;;;;;;4996493;28;20302;-63
2022/03/06 12:42:36;;;;;;;9.40;5.07;;;2.70;92.90;;;;;;5013327;28;20166;-64
2022/03/06 12:45:09;;;;;;;9.13;5.53;;;2.80;91.90;;;;;;5014027;28;20166;-64
2022/03/06 12:47:40;;;;;;;8.43;5.50;;;2.70;91.30;;;;;;4996193;28;20260;-63
2022/03/06 12:50:09;;;;;;;9.50;6.13;;;2.70;91.30;;;;;;4996245;28;20255;-64